Time;durP1;ratioP1;P1;durP2;ratioP2;P2;SDS_P1;SDS_P2;PMS_P1;PMS_P2;Temp;Humidity;BMP_temperature;BMP_pressure;BME280_temperature;BME280_humidity;BME280_pressure;Samples;Min_cycle;Max_cycle;Signal;HPM_P1;HPM_P2
2022/03/27 00:02:08;;;;;;;6.83;2.12;;;;;;;3.44;41.45;99086.81;1781842;78;21240;-68
2022/03/27 00:04:35;;;;;;;6.25;2.05;;;;;;;3.39;41.71;99096.66;1831917;78;20911;-71
2022/03/27 00:07:05;;;;;;;6.65;1.77;;;;;;;3.32;41.42;99081.17;1831943;78;20832;-71
2022/03/27 00:09:38;;;;;;;17.92;3.00;;;;;;;3.26;41.53;99093.17;1828156;77;20944;-71
2022/03/27 00:12:08;;;;;;;8.90;1.40;;;;;;;3.20;41.35;99090.23;1832469;78;20902;-69
2022/03/27 00:14:35;;;;;;;6.92;1.57;;;;;;;3.12;41.28;99089.72;1832153;78;21219;-70
2022/03/27 00:17:06;;;;;;;9.00;1.98;;;;;;;3.05;40.76;99100.12;1832145;78;20970;-69
2022/03/27 00:19:51;;;;;;;15.30;2.17;;;;;;;3.04;41.56;99088.95;1832051;78;20915;-69
2022/03/27 00:22:18;;;;;;;9.48;2.12;;;;;;;3.00;41.62;99092.77;1832057;78;21018;-71
2022/03/27 00:24:48;;;;;;;5.33;1.95;;;;;;;2.96;41.78;99096.34;1841051;77;20866;-68
2022/03/27 00:27:15;;;;;;;10.63;2.50;;;;;;;2.91;41.82;99103.45;1843798;77;21274;-70
2022/03/27 00:29:43;;;;;;;4.42;1.75;;;;;;;2.88;42.31;99096.38;1843633;77;21001;-71
2022/03/27 00:32:10;;;;;;;15.70;1.80;;;;;;;2.84;42.07;99094.77;1843806;77;20982;-71
2022/03/27 00:34:38;;;;;;;7.87;2.27;;;;;;;2.83;42.24;99106.75;1843784;77;21423;-71
2022/03/27 00:37:04;;;;;;;4.37;1.35;;;;;;;2.79;42.29;99111.11;1843363;77;20939;-71
2022/03/27 00:39:34;;;;;;;11.70;1.70;;;;;;;2.71;42.28;99109.80;1844114;77;21146;-70
2022/03/27 00:42:11;;;;;;;6.05;1.57;;;;;;;2.67;42.63;99119.05;1843296;77;21475;-69
2022/03/27 00:44:43;;;;;;;8.78;2.42;;;;;;;2.64;42.84;99115.53;1841970;77;20966;-70
2022/03/27 00:47:19;;;;;;;12.95;1.95;;;;;;;2.60;42.19;99117.16;1838562;77;20871;-69
2022/03/27 00:49:46;;;;;;;11.10;2.33;;;;;;;2.57;42.62;99130.50;1843891;77;21423;-72
2022/03/27 00:52:13;;;;;;;8.63;2.00;;;;;;;2.52;42.72;99123.99;1843645;77;21281;-69
2022/03/27 00:54:55;;;;;;;4.12;1.45;;;;;;;2.51;43.15;99133.22;1838613;77;20827;-70
2022/03/27 00:57:24;;;;;;;5.75;1.77;;;;;;;2.46;43.11;99133.23;1843686;77;20915;-71
2022/03/27 00:59:51;;;;;;;11.48;1.37;;;;;;;2.39;43.11;99129.44;1843851;77;20906;-70
2022/03/27 01:02:21;;;;;;;3.58;1.82;;;;;;;2.37;43.13;99130.25;1843670;77;21041;-68
2022/03/27 01:04:52;;;;;;;4.47;1.10;;;;;;;2.36;43.18;99133.25;1812111;77;21122;-69
2022/03/27 01:07:19;;;;;;;5.45;0.90;;;;;;;2.35;43.58;99141.98;1843593;77;20973;-70
2022/03/27 01:09:47;;;;;;;5.45;1.47;;;;;;;2.28;43.85;99135.46;1843730;77;20962;-71
2022/03/27 01:12:42;;;;;;;3.08;1.20;;;;;;;2.24;43.95;99149.86;1843651;77;20875;-71
2022/03/27 01:15:27;;;;;;;5.40;1.45;;;;;;;2.22;44.29;99134.38;1843652;77;20957;-71
2022/03/27 01:17:54;;;;;;;10.35;1.70;;;;;;;2.18;44.31;99140.34;1838652;76;21157;-69
2022/03/27 01:20:39;;;;;;;3.20;1.17;;;;;;;2.17;44.59;99145.52;1843887;77;20959;-71
2022/03/27 01:23:10;;;;;;;7.45;1.65;;;;;;;2.15;44.49;99146.89;1834335;77;20902;-69
2022/03/27 01:25:37;;;;;;;8.40;1.10;;;;;;;2.13;44.68;99145.78;1832158;77;20870;-68
2022/03/27 01:28:05;;;;;;;8.45;1.35;;;;;;;2.09;44.84;99156.94;1831987;78;21506;-70
2022/03/27 01:30:32;;;;;;;2.37;1.02;;;;;;;2.05;44.95;99161.28;1832235;78;21105;-71
2022/03/27 01:32:59;;;;;;;7.22;1.32;;;;;;;2.01;45.21;99169.19;1831878;78;20911;-70
2022/03/27 01:35:32;;;;;;;7.35;1.17;;;;;;;1.98;45.44;99172.98;1831751;78;20970;-69
2022/03/27 01:37:59;;;;;;;5.05;1.60;;;;;;;1.96;45.37;99188.20;1832005;78;20986;-69
2022/03/27 01:40:29;;;;;;;14.03;1.15;;;;;;;1.97;45.74;99184.39;1831938;78;21511;-69
2022/03/27 01:42:56;;;;;;;5.33;1.50;;;;;;;1.96;45.54;99186.03;1831894;77;21138;-70
2022/03/27 01:45:32;;;;;;;11.33;1.92;;;;;;;1.99;45.76;99189.55;1831740;78;20954;-70
2022/03/27 01:48:04;;;;;;;4.60;1.00;;;;;;;2.02;45.96;99183.57;1831350;78;20973;-69
2022/03/27 01:50:33;;;;;;;8.10;1.57;;;;;;;2.05;45.96;99206.13;1831981;78;20918;-70
2022/03/27 01:53:15;;;;;;;5.95;1.35;;;;;;;2.07;46.22;99199.89;1828328;78;20954;-68
2022/03/27 01:55:50;;;;;;;8.00;1.87;;;;;;;2.03;46.64;99208.33;1831771;78;20971;-68
2022/03/27 01:58:21;;;;;;;9.75;1.55;;;;;;;2.02;46.89;99213.47;1831485;78;20934;-70
2022/03/27 02:00:49;;;;;;;10.55;1.87;;;;;;;1.97;47.01;99219.73;1831971;78;20971;-68
2022/03/27 02:03:15;;;;;;;6.58;1.90;;;;;;;1.91;47.42;99206.66;1832019;78;20915;-71
2022/03/27 02:05:43;;;;;;;18.48;1.80;;;;;;;1.90;47.99;99234.94;1831995;78;20994;-70
2022/03/27 02:08:12;;;;;;;8.53;2.42;;;;;;;1.87;47.77;99244.16;1832085;78;21110;-71
2022/03/27 02:10:42;;;;;;;14.68;2.10;;;;;;;1.89;48.18;99229.23;1828503;78;20967;-70
2022/03/27 02:13:13;;;;;;;11.18;1.52;;;;;;;1.84;48.91;99244.70;1831839;78;20981;-70
2022/03/27 02:15:46;;;;;;;6.62;1.42;;;;;;;1.80;49.39;99252.04;1832025;78;21574;-71
2022/03/27 02:18:21;;;;;;;8.05;1.55;;;;;;;1.77;50.04;99264.81;1830487;78;20886;-69
2022/03/27 02:20:48;;;;;;;3.85;1.32;;;;;;;1.73;50.18;99249.28;1831875;78;21845;-69
2022/03/27 02:23:15;;;;;;;5.60;1.90;;;;;;;1.69;50.83;99263.94;1832070;78;20907;-70
2022/03/27 02:25:45;;;;;;;7.50;2.22;;;;;;;1.66;50.63;99277.53;1799702;78;20909;-68
2022/03/27 02:28:18;;;;;;;9.58;1.40;;;;;;;1.64;50.88;99270.75;1792047;80;20924;-72
2022/03/27 02:30:49;;;;;;;4.42;1.95;;;;;;;1.63;51.12;99275.35;1796063;80;21070;-68
2022/03/27 02:33:16;;;;;;;14.95;1.82;;;;;;;1.62;51.24;99281.84;1796212;80;21095;-68
2022/03/27 02:35:45;;;;;;;7.40;1.67;;;;;;;1.59;51.32;99289.17;1796021;80;20917;-70
2022/03/27 02:38:12;;;;;;;8.93;2.15;;;;;;;1.62;51.88;99279.70;1773465;80;20984;-69
2022/03/27 02:40:42;;;;;;;5.53;1.50;;;;;;;1.59;51.64;99285.10;1796069;80;20924;-70
2022/03/27 02:43:10;;;;;;;3.10;1.32;;;;;;;1.60;51.96;99304.41;1795993;80;21019;-70
2022/03/27 02:45:44;;;;;;;8.75;1.42;;;;;;;1.57;52.01;99298.13;1773873;80;21137;-70
2022/03/27 02:48:13;;;;;;;2.95;1.47;;;;;;;1.56;52.22;99300.58;1771610;80;20900;-70
2022/03/27 02:50:47;;;;;;;4.47;1.15;;;;;;;1.51;52.42;99287.80;1787355;80;20869;-71
2022/03/27 02:53:15;;;;;;;5.47;1.12;;;;;;;1.51;52.51;99299.20;1796100;80;20900;-70
2022/03/27 02:55:41;;;;;;;5.15;1.40;;;;;;;1.51;52.58;99296.48;1796110;80;21484;-72
2022/03/27 02:58:13;;;;;;;3.58;1.45;;;;;;;1.50;52.82;99294.30;1791572;80;22042;-67
2022/03/27 03:00:43;;;;;;;9.65;2.98;;;;;;;1.49;52.78;99298.11;1795891;79;20920;-71
2022/03/27 03:03:11;;;;;;;7.28;1.55;;;;;;;1.47;52.67;99304.33;1796125;80;21465;-68
2022/03/27 03:05:43;;;;;;;8.60;2.22;;;;;;;1.43;52.79;99304.60;1793482;79;21090;-71
2022/03/27 03:08:17;;;;;;;12.85;1.87;;;;;;;1.39;52.82;99304.84;1795497;79;21026;-69
2022/03/27 03:10:56;;;;;;;6.75;1.80;;;;;;;1.37;52.94;99302.39;1769974;80;21000;-67
2022/03/27 03:13:24;;;;;;;4.80;1.75;;;;;;;1.35;52.79;99309.98;1795960;80;20916;-70
2022/03/27 03:15:52;;;;;;;6.03;2.70;;;;;;;1.31;52.82;99311.05;1796175;80;21556;-67
2022/03/27 03:18:22;;;;;;;8.10;2.27;;;;;;;1.28;52.84;99307.50;1795938;80;20912;-70
2022/03/27 03:20:48;;;;;;;7.53;2.12;;;;;;;1.26;52.96;99310.22;1796300;80;21014;-67
2022/03/27 03:23:19;;;;;;;3.52;2.08;;;;;;;1.20;52.71;99318.33;1796127;80;20928;-70
2022/03/27 03:25:45;;;;;;;5.28;1.65;;;;;;;1.18;53.05;99320.48;1796018;78;20909;-71
2022/03/27 03:28:12;;;;;;;7.95;2.20;;;;;;;1.15;52.95;99323.72;1795899;80;20966;-70
2022/03/27 03:30:48;;;;;;;4.08;2.50;;;;;;;1.11;52.80;99323.16;1788744;80;20881;-69
2022/03/27 03:33:15;;;;;;;4.95;1.80;;;;;;;1.07;52.83;99327.77;1795737;79;21068;-71
2022/03/27 03:35:42;;;;;;;4.45;1.70;;;;;;;1.05;52.82;99334.52;1796452;80;21299;-69
2022/03/27 03:38:13;;;;;;;7.28;2.50;;;;;;;1.03;52.86;99328.52;1795701;80;20987;-70
2022/03/27 03:40:41;;;;;;;5.12;2.00;;;;;;;1.03;52.70;99343.45;1795706;80;20924;-70
2022/03/27 03:43:11;;;;;;;2.33;1.22;;;;;;;1.01;52.65;99349.14;1796297;80;21469;-67
2022/03/27 03:45:41;;;;;;;6.55;1.40;;;;;;;1.01;52.69;99351.85;1796149;79;20932;-68
2022/03/27 03:48:08;;;;;;;2.98;1.42;;;;;;;1.03;52.87;99354.30;1796240;80;21004;-67
2022/03/27 03:50:36;;;;;;;7.60;1.30;;;;;;;1.03;53.08;99355.13;1796054;80;21409;-67
2022/03/27 03:53:09;;;;;;;3.98;1.15;;;;;;;1.06;53.22;99353.25;1796078;80;20975;-69
2022/03/27 03:55:38;;;;;;;8.80;1.77;;;;;;;1.12;53.72;99358.19;1774305;80;20936;-70
2022/03/27 03:58:12;;;;;;;5.85;1.12;;;;;;;1.15;54.16;99368.52;1796379;80;20908;-68
2022/03/27 04:00:52;;;;;;;6.00;1.25;;;;;;;1.15;54.40;99373.94;1796034;80;20943;-68
2022/03/27 04:03:18;;;;;;;6.92;1.60;;;;;;;1.11;54.73;99381.52;1795972;80;21020;-71
2022/03/27 04:05:47;;;;;;;1.95;1.15;;;;;;;1.07;55.12;99380.69;1773193;80;20865;-69
2022/03/27 04:08:18;;;;;;;6.08;1.35;;;;;;;1.06;55.83;99381.74;1796012;80;20983;-71
2022/03/27 04:10:45;;;;;;;7.30;1.12;;;;;;;1.06;56.21;99389.89;1796053;80;21039;-72
2022/03/27 04:13:13;;;;;;;7.08;1.52;;;;;;;1.07;56.42;99389.36;1795126;79;20857;-67
2022/03/27 04:15:45;;;;;;;4.42;1.57;;;;;;;1.10;56.46;99395.62;1795983;80;21485;-70
2022/03/27 04:18:26;;;;;;;3.60;1.40;;;;;;;1.06;56.56;99402.62;1796038;79;20837;-71
2022/03/27 04:20:55;;;;;;;18.57;2.45;;;;;;;1.06;56.56;99402.62;1795802;80;20977;-70
2022/03/27 04:23:26;;;;;;;4.15;1.37;;;;;;;1.03;56.29;99420.27;1762502;80;20960;-70
2022/03/27 04:25:56;;;;;;;8.83;1.35;;;;;;;0.99;55.90;99411.55;1822147;78;21070;-68
2022/03/27 04:28:41;;;;;;;5.15;1.20;;;;;;;0.99;56.09;99419.69;1827969;78;21088;-70
2022/03/27 04:31:14;;;;;;;5.03;1.15;;;;;;;0.95;55.86;99426.17;1809322;78;21049;-72
2022/03/27 04:33:44;;;;;;;5.22;1.15;;;;;;;0.92;55.13;99447.04;1836410;78;20983;-71
2022/03/27 04:36:10;;;;;;;5.33;1.20;;;;;;;0.88;55.38;99442.66;1831937;78;20946;-70
2022/03/27 04:38:37;;;;;;;3.83;1.27;;;;;;;0.89;55.10;99445.64;1831962;78;21230;-70
2022/03/27 04:41:04;;;;;;;2.10;1.00;;;;;;;0.87;54.75;99448.34;1831941;78;20852;-71
2022/03/27 04:43:32;;;;;;;6.80;1.50;;;;;;;0.90;55.07;99451.37;1832096;78;21518;-71
2022/03/27 04:46:02;;;;;;;3.08;1.15;;;;;;;0.91;54.83;99446.73;1831896;78;20923;-71
2022/03/27 04:48:29;;;;;;;3.40;1.37;;;;;;;0.93;54.93;99454.09;1809044;78;21022;-69
2022/03/27 04:50:55;;;;;;;5.47;1.45;;;;;;;0.92;55.03;99458.69;1832376;78;21107;-72
2022/03/27 04:53:23;;;;;;;4.50;1.00;;;;;;;0.93;55.93;99463.59;1831965;78;20946;-71
2022/03/27 04:56:02;;;;;;;2.42;1.30;;;;;;;0.93;56.43;99473.92;1831803;78;20895;-71
2022/03/27 04:58:37;;;;;;;3.95;0.95;;;;;;;0.90;55.73;99466.82;1831999;78;21018;-71
2022/03/27 05:01:12;;;;;;;3.37;1.32;;;;;;;0.86;56.32;99477.36;1832089;78;21531;-70
2022/03/27 05:03:39;;;;;;;6.62;2.05;;;;;;;0.78;61.26;99492.22;1832146;78;21114;-71
2022/03/27 05:06:16;;;;;;;4.05;1.32;;;;;;;0.72;58.65;99495.41;1832166;78;21436;-71
2022/03/27 05:08:47;;;;;;;10.93;3.27;;;;;;;0.63;78.08;99505.61;1831706;78;21080;-71
2022/03/27 05:11:15;;;;;;;4.58;1.57;;;;;;;0.47;84.06;99515.75;1831925;78;20991;-71
2022/03/27 05:13:59;;;;;;;5.60;1.65;;;;;;;0.20;93.36;99525.98;1828148;78;20915;-71
2022/03/27 05:16:25;;;;;;;4.58;1.50;;;;;;;-0.09;100.00;99523.42;1832033;78;21322;-71
2022/03/27 05:18:55;;;;;;;7.45;2.05;;;;;;;-0.34;100.00;99538.20;1828127;78;20955;-71
2022/03/27 05:21:23;;;;;;;6.58;1.55;;;;;;;-0.36;100.00;99543.06;1831619;78;20950;-68
2022/03/27 05:23:51;;;;;;;8.45;1.87;;;;;;;-0.36;100.00;99534.94;1831974;78;21475;-68
2022/03/27 05:26:18;;;;;;;5.85;3.08;;;;;;;-0.34;100.00;99532.78;1803926;78;20920;-70
2022/03/27 05:28:45;;;;;;;7.47;2.62;;;;;;;-0.28;100.00;99539.11;1773954;80;21716;-69
2022/03/27 05:31:12;;;;;;;16.07;3.10;;;;;;;-0.30;100.00;99536.66;1796090;80;20912;-69
2022/03/27 05:33:39;;;;;;;12.65;3.45;;;;;;;-0.23;100.00;99537.01;1796236;80;21000;-68
2022/03/27 05:36:11;;;;;;;10.85;3.98;;;;;;;-0.15;100.00;99530.64;1795900;79;21178;-67
2022/03/27 05:38:41;;;;;;;20.23;4.37;;;;;;;-0.07;100.00;99540.78;1795244;79;20916;-67
2022/03/27 05:41:09;;;;;;;7.00;3.35;;;;;;;0.03;100.00;99553.65;1796025;79;21275;-69
2022/03/27 05:43:41;;;;;;;10.93;3.35;;;;;;;0.08;100.00;99546.95;1796165;80;21516;-69
2022/03/27 05:46:09;;;;;;;8.18;2.80;;;;;;;0.14;100.00;99552.72;1796362;80;21031;-71
2022/03/27 05:48:36;;;;;;;7.47;2.60;;;;;;;0.20;100.00;99546.84;1796032;80;20829;-69
2022/03/27 05:51:04;;;;;;;7.03;2.45;;;;;;;0.28;100.00;99552.36;1796153;80;21023;-68
2022/03/27 05:53:34;;;;;;;5.35;1.90;;;;;;;0.31;100.00;99558.10;1796542;80;21823;-69
2022/03/27 05:56:01;;;;;;;4.70;1.80;;;;;;;0.37;100.00;99563.06;1796169;80;20867;-70
2022/03/27 05:58:28;;;;;;;12.15;2.15;;;;;;;0.35;100.00;99570.09;1796034;80;21549;-68
2022/03/27 06:00:56;;;;;;;8.93;2.52;;;;;;;0.39;100.00;99560.10;1773647;80;20921;-72
2022/03/27 06:03:22;;;;;;;4.78;1.72;;;;;;;0.35;98.57;99615.36;1796396;80;21011;-71
2022/03/27 06:05:51;;;;;;;3.70;1.37;;;;;;;-1.18;100.00;99639.28;1773453;80;20924;-69
2022/03/27 06:08:20;;;;;;;6.47;1.87;;;;;;;-1.33;100.00;99636.53;1796111;80;20955;-69
2022/03/27 06:10:56;;;;;;;5.65;2.65;;;;;;;-1.37;100.00;99620.51;1796193;80;20991;-70
2022/03/27 06:13:25;;;;;;;5.85;2.62;;;;;;;-1.38;100.00;99617.52;1795789;80;20924;-71
2022/03/27 06:16:25;;;;;;;5.55;2.25;;;;;;;-1.26;100.00;99630.47;1792549;80;20924;-69
2022/03/27 06:18:53;;;;;;;8.75;3.60;;;;;;;-1.13;100.00;99642.09;1773058;80;21031;-70
2022/03/27 06:21:21;;;;;;;13.22;3.90;;;;;;;-1.05;100.00;99633.59;1795732;79;20932;-71
2022/03/27 06:23:55;;;;;;;5.45;2.58;;;;;;;-0.71;100.00;99650.48;1738319;82;21048;-71
2022/03/27 06:26:22;;;;;;;9.40;3.87;;;;;;;-0.45;100.00;99646.06;1759032;79;20981;-71
2022/03/27 06:29:01;;;;;;;9.80;3.50;;;;;;;-0.32;100.00;99633.57;1772337;81;21092;-69
2022/03/27 06:31:55;;;;;;;7.78;3.47;;;;;;;-0.26;100.00;99650.19;1771408;81;21570;-71
2022/03/27 06:34:26;;;;;;;6.45;2.60;;;;;;;-0.10;100.00;99660.48;1764683;81;21040;-74
2022/03/27 06:36:57;;;;;;;6.22;3.00;;;;;;;-0.02;100.00;99656.81;1772079;81;20957;-70
2022/03/27 06:39:24;;;;;;;7.45;3.80;;;;;;;0.08;100.00;99661.59;1771417;81;21080;-70
2022/03/27 06:42:09;;;;;;;9.60;2.75;;;;;;;0.21;100.00;99662.31;1743277;81;21398;-70
2022/03/27 06:44:57;;;;;;;5.37;3.35;;;;;;;0.29;100.00;99655.67;1772535;81;21508;-69
2022/03/27 06:47:27;;;;;;;4.37;2.25;;;;;;;0.39;100.00;99660.42;1774602;78;21070;-71
2022/03/27 06:49:56;;;;;;;4.17;2.22;;;;;;;0.51;100.00;99654.90;1832336;78;20929;-71
2022/03/27 06:52:23;;;;;;;4.37;2.80;;;;;;;0.54;100.00;99658.46;1832387;78;21012;-71
2022/03/27 06:54:52;;;;;;;6.67;2.40;;;;;;;0.52;100.00;99652.45;1832609;78;21467;-69
2022/03/27 06:57:19;;;;;;;3.75;2.45;;;;;;;0.64;100.00;99656.42;1832171;78;21570;-71
2022/03/27 07:05:22;;;;;;;4.70;2.25;;;;;;;1.24;100.00;99672.92;1831935;78;21503;-71
2022/03/27 07:08:01;;;;;;;7.75;1.15;;;;;;;0.70;100.00;99671.72;1828072;78;21034;-70
2022/03/27 07:10:37;;;;;;;2.45;1.45;;;;;;;0.62;100.00;99681.61;1832141;77;20998;-69
2022/03/27 07:13:10;;;;;;;3.98;1.02;;;;;;;0.55;100.00;99671.77;1808929;78;27422;-71
2022/03/27 07:15:38;;;;;;;2.12;1.07;;;;;;;0.66;100.00;99689.55;1832231;78;20979;-69
2022/03/27 07:18:06;;;;;;;4.20;0.65;;;;;;;0.51;100.00;99708.61;1831683;78;21475;-68
2022/03/27 07:20:35;;;;;;;1.32;0.65;;;;;;;0.56;100.00;99726.84;1832173;78;21491;-71
2022/03/27 07:23:06;;;;;;;1.90;0.70;;;;;;;0.44;100.00;99726.41;1832369;78;21444;-70
2022/03/27 07:25:35;;;;;;;3.80;0.88;;;;;;;0.56;100.00;99715.44;1831862;78;20966;-69
2022/03/27 07:28:06;;;;;;;3.72;1.47;;;;;;;0.78;100.00;99717.92;1831829;78;20911;-70
2022/03/27 07:30:34;;;;;;;2.08;1.57;;;;;;;0.79;100.00;99743.45;1831816;78;20967;-72
2022/03/27 07:33:03;;;;;;;1.72;0.78;;;;;;;0.66;100.00;99742.44;1831858;78;20970;-71
2022/03/27 07:35:35;;;;;;;1.30;0.70;;;;;;;0.57;100.00;99756.95;1827259;78;21060;-72
2022/03/27 07:38:03;;;;;;;2.75;1.35;;;;;;;0.65;100.00;99730.76;1831979;77;20864;-71
2022/03/27 07:40:34;;;;;;;3.98;0.90;;;;;;;0.83;100.00;99728.85;1831891;78;20967;-72
2022/03/27 07:43:05;;;;;;;3.42;1.10;;;;;;;0.91;100.00;99731.13;1828828;78;20954;-70
2022/03/27 07:45:36;;;;;;;2.25;1.35;;;;;;;1.03;100.00;99728.84;1832217;78;20871;-70
2022/03/27 07:48:05;;;;;;;4.47;1.40;;;;;;;1.21;100.00;99729.09;1831775;78;21644;-71
2022/03/27 07:50:33;;;;;;;3.15;1.72;;;;;;;1.14;100.00;99733.87;1832096;78;21026;-71
2022/03/27 07:53:01;;;;;;;5.55;2.22;;;;;;;1.09;100.00;99738.70;1831839;78;20945;-70
2022/03/27 07:55:29;;;;;;;4.22;2.00;;;;;;;0.93;100.00;99723.57;1831895;78;20991;-70
2022/03/27 07:58:06;;;;;;;4.53;1.82;;;;;;;0.85;100.00;99725.36;1831778;77;20947;-70
2022/03/27 08:00:47;;;;;;;5.97;1.67;;;;;;;0.87;100.00;99723.75;1828445;78;21030;-72
2022/03/27 08:03:17;;;;;;;2.45;1.30;;;;;;;0.80;100.00;99745.64;1808593;78;20990;-71
2022/03/27 08:05:45;;;;;;;4.62;1.85;;;;;;;0.72;100.00;99738.72;1832072;78;20939;-71
2022/03/27 08:08:12;;;;;;;2.05;1.15;;;;;;;0.60;100.00;99740.17;1832368;78;20953;-71
2022/03/27 08:10:44;;;;;;;7.42;1.40;;;;;;;0.48;100.00;99772.28;1831778;78;20943;-69
2022/03/27 08:13:25;;;;;;;5.10;1.30;;;;;;;0.32;100.00;99769.03;1831504;78;20962;-71
2022/03/27 08:15:57;;;;;;;2.98;1.72;;;;;;;0.26;100.00;99774.89;1832125;78;21479;-72
2022/03/27 08:18:27;;;;;;;7.20;1.55;;;;;;;0.14;100.00;99793.94;1832012;78;20979;-68
2022/03/27 08:20:58;;;;;;;4.53;2.10;;;;;;;0.09;100.00;99795.20;1832009;78;20883;-73
2022/03/27 08:23:30;;;;;;;6.22;1.50;;;;;;;0.05;100.00;99806.25;1831826;78;21522;-70
2022/03/27 08:28:47;;;;;;;1.75;1.27;;;;;;;0.01;100.00;99807.78;1791300;78;21030;-71
2022/03/27 08:31:15;;;;;;;5.05;1.90;;;;;;;0.09;100.00;99807.39;1832129;78;20935;-70
2022/03/27 08:33:44;;;;;;;2.40;1.30;;;;;;;0.32;100.00;99802.92;1831737;78;20983;-71
2022/03/27 08:36:12;;;;;;;3.55;1.70;;;;;;;0.72;100.00;99799.23;1832049;78;20907;-71
2022/03/27 08:38:41;;;;;;;6.03;2.40;;;;;;;0.99;100.00;99808.58;1831909;78;20958;-71
2022/03/27 08:41:18;;;;;;;10.80;2.33;;;;;;;1.06;100.00;99801.61;1827758;78;20911;-70
2022/03/27 08:43:58;;;;;;;5.35;2.05;;;;;;;1.02;100.00;99795.06;1832100;78;20991;-70
2022/03/27 08:46:26;;;;;;;3.62;1.60;;;;;;;0.92;100.00;99814.73;1831472;78;21480;-70
2022/03/27 08:49:12;;;;;;;2.62;1.42;;;;;;;0.92;100.00;99808.75;1830570;78;22118;-74
2022/03/27 08:51:49;;;;;;;6.00;1.80;;;;;;;0.95;100.00;99815.06;1831611;77;20856;-71
2022/03/27 08:54:28;;;;;;;3.08;1.40;;;;;;;0.88;100.00;99825.78;1807377;78;20998;-73
2022/03/27 08:57:11;;;;;;;3.30;1.27;;;;;;;0.85;100.00;99829.83;1825584;78;20963;-71
2022/03/27 08:59:39;;;;;;;2.30;1.00;;;;;;;0.79;100.00;99838.41;1831582;78;21400;-71
2022/03/27 09:02:10;;;;;;;3.58;1.17;;;;;;;0.78;100.00;99848.98;1832030;78;21069;-70
2022/03/27 09:04:41;;;;;;;2.30;1.17;;;;;;;1.02;100.00;99827.63;1832086;78;21616;-71
2022/03/27 09:07:13;;;;;;;3.22;1.15;;;;;;;1.28;100.00;99839.66;1831977;78;20971;-68
2022/03/27 09:09:41;;;;;;;4.15;1.60;;;;;;;1.35;100.00;99838.69;1832161;78;21029;-69
2022/03/27 09:12:15;;;;;;;9.13;1.22;;;;;;;1.57;100.00;99815.06;1831852;78;21070;-71
2022/03/27 09:14:48;;;;;;;2.40;1.05;;;;;;;1.77;100.00;99834.59;1831989;78;20895;-72
2022/03/27 09:17:17;;;;;;;7.35;1.45;;;;;;;1.68;100.00;99860.02;1831748;78;21769;-70
2022/03/27 09:19:51;;;;;;;6.83;1.17;;;;;;;1.40;100.00;99849.62;1831743;78;21595;-71
2022/03/27 09:22:24;;;;;;;6.03;1.70;;;;;;;1.17;99.64;99841.95;1832299;78;20932;-70
2022/03/27 09:25:02;;;;;;;5.92;1.87;;;;;;;1.26;100.00;99843.72;1803851;78;20915;-68
2022/03/27 09:27:36;;;;;;;2.17;1.20;;;;;;;1.50;100.00;99838.06;1839521;77;21033;-70
2022/03/27 09:30:11;;;;;;;2.30;1.20;;;;;;;1.66;100.00;99853.48;1843529;77;21744;-72
2022/03/27 09:32:43;;;;;;;1.95;0.90;;;;;;;1.69;100.00;99831.23;1843700;77;21019;-70
2022/03/27 09:35:17;;;;;;;9.65;1.27;;;;;;;2.01;100.00;99826.17;1844056;77;21034;-69
2022/03/27 09:37:46;;;;;;;4.92;1.35;;;;;;;2.30;100.00;99826.72;1843513;77;20953;-71
2022/03/27 09:40:20;;;;;;;3.33;1.10;;;;;;;2.58;100.00;99840.30;1838482;77;21387;-72
2022/03/27 09:42:55;;;;;;;1.75;0.93;;;;;;;2.60;100.00;99829.16;1842736;77;21813;-68
2022/03/27 09:45:28;;;;;;;2.85;1.30;;;;;;;2.31;99.05;99846.06;1838093;77;20946;-69
2022/03/27 09:48:00;;;;;;;4.35;1.80;;;;;;;2.25;100.00;99818.52;1843556;77;20979;-67
2022/03/27 09:50:40;;;;;;;7.17;2.60;;;;;;;2.41;100.00;99824.09;1808187;77;20949;-70
2022/03/27 09:53:30;;;;;;;6.08;1.77;;;;;;;2.48;100.00;99811.12;1843748;77;20966;-69
2022/03/27 09:56:03;;;;;;;4.67;1.87;;;;;;;2.63;100.00;99830.83;1843986;77;21099;-71
2022/03/27 09:58:47;;;;;;;6.37;2.35;;;;;;;2.80;100.00;99847.03;1843706;77;21016;-71
2022/03/27 10:01:18;;;;;;;5.37;1.97;;;;;;;2.23;100.00;99838.89;1844211;77;20986;-71
2022/03/27 10:04:13;;;;;;;5.25;2.47;;;;;;;2.17;100.00;99834.77;1844116;77;20982;-72
2022/03/27 10:06:40;;;;;;;8.83;3.22;;;;;;;2.17;100.00;99834.77;1842909;77;21021;-70
2022/03/27 10:09:10;;;;;;;10.85;3.33;;;;;;;2.18;94.62;99840.47;1793407;77;21839;-68
2022/03/27 10:11:42;;;;;;;5.20;2.40;;;;;;;2.37;100.00;99848.83;1843778;77;20984;-72
2022/03/27 10:14:09;;;;;;;7.30;2.62;;;;;;;2.46;100.00;99854.63;1843596;77;20907;-72
2022/03/27 10:16:45;;;;;;;4.25;1.87;;;;;;;2.67;100.00;99849.66;1843752;77;21428;-71
2022/03/27 10:19:35;;;;;;;4.62;1.85;;;;;;;2.86;99.20;99842.98;1843681;77;21018;-68
2022/03/27 10:22:05;;;;;;;4.47;1.98;;;;;;;2.84;98.06;99849.22;1843990;77;21739;-72
2022/03/27 10:24:32;;;;;;;3.10;1.40;;;;;;;2.81;90.71;99860.11;1843577;77;20911;-70
2022/03/27 10:27:02;;;;;;;4.00;1.20;;;;;;;2.77;87.11;99861.69;1839030;77;21459;-69
2022/03/27 10:29:31;;;;;;;4.92;1.45;;;;;;;2.89;91.11;99841.09;1831837;77;21018;-69
2022/03/27 10:32:04;;;;;;;6.58;2.15;;;;;;;2.93;87.73;99854.48;1756109;78;21022;-72
2022/03/27 10:34:33;;;;;;;4.15;1.57;;;;;;;3.08;94.19;99840.69;1831851;78;21472;-70
2022/03/27 10:37:14;;;;;;;3.55;2.10;;;;;;;3.25;88.49;99862.31;1831691;77;21022;-70
2022/03/27 10:40:08;;;;;;;5.47;2.15;;;;;;;3.27;89.20;99843.81;1819201;78;20972;-71
2022/03/27 10:43:09;;;;;;;7.12;1.82;;;;;;;3.33;84.98;99843.28;1805043;78;20939;-69
2022/03/27 10:45:37;;;;;;;4.72;2.27;;;;;;;3.37;81.35;99853.41;1809026;78;21441;-71
2022/03/27 10:48:18;;;;;;;3.65;2.30;;;;;;;3.55;79.87;99860.84;1831771;78;21095;-70
2022/03/27 10:51:00;;;;;;;6.10;2.67;;;;;;;3.57;65.52;99834.16;1830590;78;20958;-72
2022/03/27 10:53:34;;;;;;;8.45;2.67;;;;;;;3.55;73.24;99834.16;1832013;78;20923;-71
2022/03/27 10:56:03;;;;;;;4.33;2.15;;;;;;;3.59;70.02;99831.99;1809398;78;20923;-73
2022/03/27 10:58:37;;;;;;;6.00;2.35;;;;;;;3.65;58.64;99832.84;1832009;78;21002;-71
2022/03/27 11:01:26;;;;;;;4.65;1.87;;;;;;;3.72;60.33;99823.86;1831979;78;21938;-71
2022/03/27 11:04:14;;;;;;;4.05;2.00;;;;;;;3.70;60.16;99826.59;1831696;78;21400;-70
2022/03/27 11:06:44;;;;;;;5.45;2.25;;;;;;;3.82;52.60;99851.70;1831428;78;21475;-71
2022/03/27 11:09:35;;;;;;;2.87;1.30;;;;;;;3.84;50.47;99825.56;1832008;77;20963;-70
2022/03/27 11:12:07;;;;;;;4.17;1.85;;;;;;;3.79;47.05;99819.52;1831926;78;21491;-72
2022/03/27 11:15:06;;;;;;;9.18;2.27;;;;;;;3.81;47.68;99832.34;1831949;78;21834;-70
2022/03/27 11:17:50;;;;;;;6.03;2.27;;;;;;;4.04;48.41;99831.62;1810745;78;20914;-71
2022/03/27 11:20:29;;;;;;;4.40;1.90;;;;;;;4.21;44.48;99840.11;1831831;78;20864;-72
2022/03/27 11:23:04;;;;;;;5.05;2.35;;;;;;;4.16;44.75;99836.00;1831984;78;21001;-73
2022/03/27 11:25:46;;;;;;;5.05;2.52;;;;;;;4.10;46.50;99841.44;1832122;78;20977;-70
2022/03/27 11:28:18;;;;;;;6.45;2.95;;;;;;;4.21;46.85;99829.20;1831300;78;21777;-72
2022/03/27 11:34:16;;;;;;;2.87;1.98;;;;;;;4.38;39.67;99846.69;1832010;77;21358;-70
2022/03/27 11:36:51;;;;;;;5.78;1.62;;;;;;;4.30;34.81;99843.13;1827999;78;20880;-70
2022/03/27 11:39:34;;;;;;;3.00;1.60;;;;;;;4.29;33.49;99834.12;1832602;78;20927;-70
2022/03/27 11:42:33;;;;;;;6.00;2.10;;;;;;;4.31;34.01;99843.39;1832142;78;25440;-71
2022/03/27 11:45:23;;;;;;;10.20;2.33;;;;;;;4.30;33.37;99833.58;1831553;78;20891;-69
2022/03/27 11:47:53;;;;;;;7.12;1.70;;;;;;;4.35;34.69;99833.02;1808445;78;21514;-72
2022/03/27 11:50:35;;;;;;;8.65;3.00;;;;;;;4.41;34.02;99835.77;1832214;78;20970;-71
2022/03/27 11:53:07;;;;;;;4.12;2.22;;;;;;;4.45;35.29;99832.22;1831830;78;20863;-72
2022/03/27 11:55:42;;;;;;;5.25;2.47;;;;;;;4.54;33.94;99839.32;1832131;77;20898;-73
2022/03/27 11:58:14;;;;;;;7.50;3.00;;;;;;;4.44;33.90;99846.96;1831815;78;21365;-68
2022/03/27 12:00:45;;;;;;;9.93;2.67;;;;;;;4.30;34.36;99828.92;1836503;78;21019;-69
2022/03/27 12:03:21;;;;;;;9.35;2.65;;;;;;;4.16;34.26;99833.27;1831368;78;20926;-72
2022/03/27 12:05:52;;;;;;;7.78;2.62;;;;;;;4.06;34.29;99829.41;1832436;78;20860;-69
2022/03/27 12:08:19;;;;;;;6.67;2.33;;;;;;;4.25;34.51;99831.64;1831743;78;21873;-71
2022/03/27 12:10:56;;;;;;;11.97;2.60;;;;;;;4.56;32.91;99841.24;1831847;78;20828;-71
2022/03/27 12:13:20;;;;;;;7.58;2.47;;;;;;;4.58;32.15;99839.06;1830999;78;21045;-72